Time;durP1;ratioP1;P1;durP2;ratioP2;P2;SDS_P1;SDS_P2;PMS_P1;PMS_P2;Temp;Humidity;BMP_temperature;BMP_pressure;BME280_temperature;BME280_humidity;BME280_pressure;Samples;Min_cycle;Max_cycle;Signal;HPM_P1;HPM_P2
2021/09/12 17:17:51;;;;;;;;;;;19.80;58.30;;;;;;5114625;27;19924;-92
2021/09/12 17:20:17;;;;;;;;;;;19.40;61.90;;;;;;5087800;28;19912;-90
2021/09/12 17:22:45;;;;;;;;;;;19.30;64.30;;;;;;5090381;28;19954;-92
2021/09/12 17:25:13;;;;;;;;;;;19.30;65.90;;;;;;5089679;28;19919;-92
2021/09/12 17:27:39;;;;;;;;;;;19.30;67.10;;;;;;5089759;28;20411;-92
2021/09/12 17:30:05;;;;;;;;;;;19.30;67.90;;;;;;5090894;28;19931;-92
2021/09/12 17:32:31;;;;;;;;;;;19.30;68.60;;;;;;5089275;28;20367;-91
2021/09/12 17:34:56;;;;;;;;;;;19.40;69.20;;;;;;5087513;28;19975;-92
2021/09/12 17:37:22;;;;;;;;;;;19.40;69.40;;;;;;5088409;28;19954;-92
2021/09/12 17:39:47;;;;;;;;;;;19.40;69.40;;;;;;5087710;28;19919;-93
2021/09/12 17:42:13;;;;;;;;;;;19.40;69.00;;;;;;5090829;28;19951;-92
2021/09/12 17:44:39;;;;;;;;;;;19.40;68.20;;;;;;5089946;28;20376;-93
2021/09/12 17:47:04;;;;;;;;;;;19.50;68.20;;;;;;5090314;28;19912;-93
2021/09/12 17:49:30;;;;;;;;;;;19.50;68.20;;;;;;5088842;28;19958;-93
2021/09/12 17:51:56;;;;;;;;;;;19.50;68.10;;;;;;5088857;28;19908;-92
2021/09/12 17:54:21;;;;;;;;;;;19.50;68.00;;;;;;5089933;28;19912;-90
2021/09/12 17:56:47;;;;;;;;;;;19.60;68.30;;;;;;5089972;28;19951;-92
2021/09/12 17:59:13;;;;;;;;;;;19.60;68.20;;;;;;5089290;28;19962;-95
2021/09/12 18:01:38;;;;;;;;;;;19.50;68.30;;;;;;5089234;28;19952;-94
2021/09/12 18:04:05;;;;;;;;;;;19.50;68.60;;;;;;5085588;28;20365;-93
2021/09/12 18:06:31;;;;;;;;;;;19.50;68.60;;;;;;5089021;28;19966;-94
2021/09/12 18:08:56;;;;;;;;;;;19.40;68.90;;;;;;5089633;28;20312;-95
2021/09/12 18:11:22;;;;;;;;;;;19.40;69.20;;;;;;5089327;28;20413;-93
2021/09/12 18:13:47;;;;;;;;;;;19.40;69.60;;;;;;5089694;28;19909;-93
2021/09/12 18:16:13;;;;;;;;;;;19.30;69.50;;;;;;5089515;28;19974;-93
2021/09/12 18:18:39;;;;;;;;;;;19.30;69.70;;;;;;5089590;28;19923;-93
2021/09/12 18:21:04;;;;;;;;;;;19.20;69.50;;;;;;5089737;28;20001;-93
2021/09/12 18:23:30;;;;;;;;;;;19.20;69.60;;;;;;5073703;28;19915;-93
2021/09/12 18:25:55;;;;;;;;;;;19.20;69.70;;;;;;5069005;28;20373;-92
2021/09/12 18:28:21;;;;;;;;;;;19.20;70.00;;;;;;5061355;28;19909;-94
2021/09/12 18:30:47;;;;;;;;;;;19.20;70.00;;;;;;5066436;28;19909;-91
2021/09/12 18:33:14;;;;;;;;;;;19.10;70.00;;;;;;5056318;28;19952;-95
2021/09/12 18:35:40;;;;;;;;;;;19.10;70.30;;;;;;5056207;28;19916;-95
2021/09/12 18:38:06;;;;;;;;;;;19.00;70.70;;;;;;5056031;28;19912;-94
2021/09/12 18:40:31;;;;;;;;;;;19.00;70.90;;;;;;5056106;28;19959;-94
2021/09/12 18:42:57;;;;;;;;;;;18.90;71.30;;;;;;5065435;28;19908;-95
2021/09/12 18:45:22;;;;;;;;;;;18.80;71.50;;;;;;5076020;28;20391;-94
2021/09/12 18:47:48;;;;;;;;;;;18.80;71.90;;;;;;5076149;28;19909;-95
2021/09/12 18:50:19;;;;;;;;;;;18.70;72.30;;;;;;5070145;28;19909;-96
2021/09/12 18:52:45;;;;;;;;;;;18.70;72.60;;;;;;5160638;23;20386;-96
2021/09/12 18:55:11;;;;;;;;;;;18.60;72.80;;;;;;5011169;28;19909;-96
2021/09/12 18:57:37;;;;;;;;;;;18.60;73.40;;;;;;5016137;28;19905;-96
2021/09/12 19:00:14;;;;;;;;;;;18.50;73.40;;;;;;5204259;23;19916;-96
2021/09/12 19:05:15;;;;;;;;;;;18.40;73.70;;;;;;5523782;22;19913;-94
2021/09/12 19:07:41;;;;;;;;;;;18.40;73.70;;;;;;5041968;28;19924;-96
2021/09/12 19:10:07;;;;;;;;;;;18.40;74.00;;;;;;5027790;28;19913;-95
2021/09/12 19:14:57;;;;;;;;;;;18.30;73.30;;;;;;5103251;27;19923;-95
